Time;durP1;ratioP1;P1;durP2;ratioP2;P2;SDS_P1;SDS_P2;PMS_P1;PMS_P2;Temp;Humidity;BMP_temperature;BMP_pressure;BME280_temperature;BME280_humidity;BME280_pressure;Samples;Min_cycle;Max_cycle;Signal;HPM_P1;HPM_P2
2022/09/29 00:00:48;;;;;;;9.25;3.30;;;;;;;14.21;100.00;92312.78;5130828;27;20104;-70
2022/09/29 00:03:15;;;;;;;7.75;3.28;;;;;;;14.10;100.00;92300.84;5130892;27;21280;-70
2022/09/29 00:05:47;;;;;;;10.52;3.10;;;;;;;14.17;100.00;92316.91;5130907;27;20424;-70
2022/09/29 00:08:16;;;;;;;9.70;3.30;;;;;;;14.06;100.00;92303.16;5130802;27;20043;-71
2022/09/29 00:10:42;;;;;;;7.20;3.30;;;;;;;14.03;100.00;92312.19;5130939;27;20108;-71
2022/09/29 00:13:09;;;;;;;9.15;2.92;;;;;;;13.97;100.00;92315.78;5130663;27;20448;-70
2022/09/29 00:15:36;;;;;;;5.75;2.50;;;;;;;13.79;100.00;92319.59;5130913;27;20043;-70
2022/09/29 00:18:03;;;;;;;8.95;2.60;;;;;;;13.76;100.00;92307.97;5130908;27;20092;-70
2022/09/29 00:20:30;;;;;;;8.50;2.42;;;;;;;13.75;100.00;92308.22;5115708;27;20154;-71
2022/09/29 00:22:56;;;;;;;5.90;2.90;;;;;;;13.76;100.00;92312.34;5130759;27;20039;-71
2022/09/29 00:25:25;;;;;;;10.68;3.55;;;;;;;13.75;100.00;92306.41;5130659;27;20055;-71
2022/09/29 00:27:51;;;;;;;7.07;3.13;;;;;;;13.73;100.00;92313.63;5130327;27;20095;-71
2022/09/29 00:30:18;;;;;;;8.93;3.42;;;;;;;13.73;100.00;92303.31;5130284;27;20047;-71
2022/09/29 00:32:45;;;;;;;8.27;3.30;;;;;;;13.75;100.00;92303.81;5130456;27;20047;-71
2022/09/29 00:35:12;;;;;;;9.23;3.15;;;;;;;13.77;100.00;92293.25;5130126;27;20551;-71
2022/09/29 00:37:38;;;;;;;6.57;2.60;;;;;;;13.80;100.00;92295.31;5127786;27;20047;-71
2022/09/29 00:40:06;;;;;;;8.57;2.55;;;;;;;13.81;100.00;92294.31;5130549;27;20071;-71
2022/09/29 00:42:35;;;;;;;7.38;2.60;;;;;;;13.77;100.00;92301.00;5130017;27;20043;-71
2022/09/29 00:45:20;;;;;;;6.20;2.53;;;;;;;13.77;100.00;92306.16;5110509;27;20101;-71
2022/09/29 00:47:49;;;;;;;;;;;;;;;13.69;100.00;92304.03;5100506;28;20044;-70
2022/09/29 00:50:19;;;;;;;9.02;3.83;;;;;;;13.66;100.00;92299.41;5098177;28;20333;-71
2022/09/29 00:52:52;;;;;;;9.02;3.22;;;;;;;13.56;100.00;92287.22;5098944;28;20093;-71
2022/09/29 00:55:24;;;;;;;8.65;3.47;;;;;;;13.60;100.00;92293.44;5095870;28;20048;-71
2022/09/29 00:57:58;;;;;;;9.05;4.15;;;;;;;13.57;100.00;92292.13;5098291;28;20058;-71
2022/09/29 01:00:25;;;;;;;10.40;4.38;;;;;;;13.54;100.00;92291.84;5094860;28;20049;-71
2022/09/29 01:02:57;;;;;;;8.90;4.47;;;;;;;13.52;100.00;92299.84;5100163;28;20105;-71
2022/09/29 01:05:31;;;;;;;10.38;4.10;;;;;;;13.48;100.00;92298.81;5099240;28;20441;-71
2022/09/29 01:08:01;;;;;;;10.50;4.05;;;;;;;13.44;100.00;92300.28;5098474;28;20048;-71
2022/09/29 01:10:28;;;;;;;9.60;4.13;;;;;;;13.42;100.00;92300.53;5098623;28;20461;-71
2022/09/29 01:12:57;;;;;;;9.00;3.60;;;;;;;13.43;100.00;92302.09;5099741;28;20058;-71
2022/09/29 01:15:24;;;;;;;7.57;3.13;;;;;;;13.45;100.00;92299.25;5098614;28;20048;-71
2022/09/29 01:17:50;;;;;;;6.50;2.72;;;;;;;13.47;100.00;92300.59;5097625;28;20043;-71
2022/09/29 01:20:19;;;;;;;6.38;2.85;;;;;;;13.48;100.00;92301.38;5098677;28;20051;-71
2022/09/29 01:23:34;;;;;;;6.38;3.05;;;;;;;13.51;100.00;92300.88;5098960;28;20048;-71
2022/09/29 01:26:24;;;;;;;7.40;2.80;;;;;;;13.55;100.00;92314.03;5092518;28;20053;-71
2022/09/29 01:29:14;;;;;;;8.38;2.50;;;;;;;13.58;100.00;92314.34;5098422;28;20051;-71
2022/09/29 01:31:51;;;;;;;8.70;2.90;;;;;;;13.54;100.00;92308.13;5098350;28;20491;-71
2022/09/29 01:34:25;;;;;;;5.68;2.50;;;;;;;13.66;100.00;92327.78;5097876;28;20048;-71
2022/09/29 01:37:02;;;;;;;4.57;2.08;;;;;;;13.71;100.00;92322.66;5097580;28;20051;-71
2022/09/29 01:39:33;;;;;;;4.28;2.13;;;;;;;13.74;100.00;92328.09;5094008;28;20051;-71
2022/09/29 01:42:04;;;;;;;7.97;2.60;;;;;;;13.82;100.00;92328.63;5095263;28;20090;-71
2022/09/29 01:44:37;;;;;;;4.93;2.70;;;;;;;13.81;100.00;92322.72;5097511;28;20108;-71
2022/09/29 01:47:09;;;;;;;5.90;2.47;;;;;;;13.89;100.00;92329.19;5094226;28;20044;-71
2022/09/29 01:49:41;;;;;;;5.78;2.50;;;;;;;13.90;100.00;92328.94;5100028;28;20460;-71
2022/09/29 01:52:13;;;;;;;4.15;2.00;;;;;;;13.94;100.00;92336.19;5099192;28;20555;-71
2022/09/29 01:54:46;;;;;;;5.15;2.17;;;;;;;13.96;100.00;92328.94;5094292;28;20043;-70
2022/09/29 01:57:18;;;;;;;5.45;2.25;;;;;;;14.03;100.00;92324.34;5099592;28;20097;-70
2022/09/29 01:59:49;;;;;;;9.25;2.55;;;;;;;14.05;100.00;92327.44;5098830;28;20044;-71
2022/09/29 02:02:22;;;;;;;8.05;2.72;;;;;;;14.08;100.00;92323.59;5097522;28;20078;-71
2022/09/29 02:04:53;;;;;;;7.32;2.55;;;;;;;14.09;100.00;92328.50;5098140;28;20434;-71
2022/09/29 02:07:25;;;;;;;28.20;12.43;;;;;;;14.01;100.00;92328.97;5098322;28;20048;-71
2022/09/29 02:09:59;;;;;;;29.92;14.25;;;;;;;13.95;100.00;92330.78;5106332;28;20048;-71
2022/09/29 02:12:30;;;;;;;30.25;13.68;;;;;;;13.92;100.00;92333.84;5112031;28;20040;-71
2022/09/29 02:14:59;;;;;;;23.65;11.68;;;;;;;13.95;100.00;92332.56;5111895;28;20039;-71
2022/09/29 02:17:32;;;;;;;25.15;12.10;;;;;;;13.94;100.00;92334.38;5111922;28;20093;-71
2022/09/29 02:19:59;;;;;;;22.48;11.07;;;;;;;14.00;100.00;92342.91;5112149;28;20501;-71
2022/09/29 02:22:25;;;;;;;18.02;8.55;;;;;;;14.03;100.00;92339.84;5111831;28;20502;-71
2022/09/29 02:24:55;;;;;;;168.57;75.45;;;;;;;14.02;100.00;92344.22;5111986;28;20437;-71
2022/09/29 02:27:22;;;;;;;26.75;12.30;;;;;;;14.01;100.00;92347.03;5112041;28;20148;-71
2022/09/29 02:29:50;;;;;;;12.95;7.10;;;;;;;13.98;100.00;92348.31;5111452;28;20047;-71
2022/09/29 02:32:35;;;;;;;12.35;5.25;;;;;;;13.94;100.00;92343.94;5111513;28;20046;-71
2022/09/29 02:35:05;;;;;;;15.73;8.82;;;;;;;13.93;100.00;92352.72;5111633;28;20495;-71
2022/09/29 02:37:54;;;;;;;17.20;8.48;;;;;;;13.96;100.00;92347.03;5111388;28;20084;-71
2022/09/29 02:40:31;;;;;;;14.50;6.97;;;;;;;13.95;100.00;92341.09;5111409;28;20097;-71
2022/09/29 02:43:15;;;;;;;12.18;5.65;;;;;;;13.96;100.00;92336.69;5111743;28;20109;-70
2022/09/29 02:45:56;;;;;;;11.45;4.65;;;;;;;13.94;100.00;92338.75;5111578;28;20051;-70
2022/09/29 02:48:55;;;;;;;7.75;3.55;;;;;;;13.92;100.00;92312.44;5111293;28;20556;-71
2022/09/29 02:51:29;;;;;;;7.72;3.25;;;;;;;13.90;100.00;92299.78;5111525;28;20044;-71
2022/09/29 02:54:14;;;;;;;8.77;2.55;;;;;;;13.89;100.00;92301.56;5111429;28;20113;-70
2022/09/29 02:56:49;;;;;;;6.38;2.55;;;;;;;13.89;100.00;92301.56;5111474;28;20044;-71
2022/09/29 02:59:23;;;;;;;6.17;2.37;;;;;;;13.89;100.00;92300.81;5111297;28;20544;-71
2022/09/29 03:01:52;;;;;;;10.80;2.72;;;;;;;13.91;100.00;92306.47;5110577;28;20515;-71
2022/09/29 03:04:21;;;;;;;9.02;2.70;;;;;;;13.90;100.00;92316.03;5111408;28;20044;-70
2022/09/29 03:06:49;;;;;;;5.93;2.10;;;;;;;13.92;100.00;92307.25;5111732;28;20047;-70
2022/09/29 03:09:16;;;;;;;7.47;2.00;;;;;;;13.95;100.00;92310.13;5110777;28;20089;-71
2022/09/29 03:11:42;;;;;;;5.88;2.35;;;;;;;13.99;100.00;92313.72;5110816;28;20044;-70
2022/09/29 03:14:09;;;;;;;4.68;2.20;;;;;;;14.02;100.00;92322.78;5110636;28;20491;-70
2022/09/29 03:16:37;;;;;;;5.25;2.38;;;;;;;13.99;100.00;92338.78;5110161;28;20040;-70
2022/09/29 03:19:04;;;;;;;8.43;2.38;;;;;;;13.95;100.00;92342.88;5110165;28;20053;-70
2022/09/29 03:21:31;;;;;;;8.23;2.28;;;;;;;13.87;100.00;92351.88;5110789;28;20437;-70
2022/09/29 03:23:59;;;;;;;9.98;2.40;;;;;;;13.84;100.00;92355.75;5110544;28;20048;-70
2022/09/29 03:26:27;;;;;;;5.75;2.40;;;;;;;13.89;100.00;92365.34;5110744;28;20139;-70
2022/09/29 03:28:53;;;;;;;6.53;1.90;;;;;;;13.83;100.00;92366.31;5110726;28;20051;-71
2022/09/29 03:31:20;;;;;;;6.38;2.45;;;;;;;13.83;100.00;92364.53;5110749;28;20092;-71
2022/09/29 03:33:47;;;;;;;9.02;2.83;;;;;;;13.81;100.00;92371.75;5110344;28;20100;-71
2022/09/29 03:36:14;;;;;;;10.57;2.78;;;;;;;13.80;100.00;92362.44;5110262;28;20245;-71
2022/09/29 03:38:42;;;;;;;12.63;3.13;;;;;;;13.75;100.00;92358.03;5110446;28;20108;-71
2022/09/29 03:41:11;;;;;;;10.95;2.80;;;;;;;13.73;100.00;92362.66;5110444;28;20036;-71
2022/09/29 03:43:37;;;;;;;7.38;2.53;;;;;;;13.70;100.00;92360.56;5110084;28;20043;-71
2022/09/29 03:46:04;;;;;;;9.73;3.05;;;;;;;13.67;100.00;92353.34;5110306;28;20047;-71
2022/09/29 03:48:33;;;;;;;7.40;2.60;;;;;;;13.67;100.00;92361.09;5110225;28;20422;-71
2022/09/29 03:51:01;;;;;;;9.30;3.60;;;;;;;13.64;100.00;92351.25;5110364;28;20456;-71
2022/09/29 03:53:27;;;;;;;13.73;3.25;;;;;;;13.63;100.00;92350.50;5110279;28;20044;-71
2022/09/29 03:55:54;;;;;;;9.43;3.20;;;;;;;13.61;100.00;92342.22;5110401;28;20105;-72
2022/09/29 03:58:22;;;;;;;11.32;3.33;;;;;;;13.63;100.00;92347.91;5110002;28;20638;-71
2022/09/29 04:00:49;;;;;;;11.10;3.20;;;;;;;13.60;100.00;92350.19;5109920;28;20043;-71
2022/09/29 04:03:16;;;;;;;11.00;2.88;;;;;;;13.58;100.00;92347.09;5110097;28;20093;-71
2022/09/29 04:05:45;;;;;;;19.13;4.47;;;;;;;13.50;100.00;92343.19;5109709;28;20051;-70
2022/09/29 04:08:11;;;;;;;12.93;4.65;;;;;;;13.47;100.00;92331.56;5107022;28;20040;-70
2022/09/29 04:10:39;;;;;;;8.95;4.15;;;;;;;13.42;100.00;92333.31;5089411;28;20048;-71
2022/09/29 04:13:07;;;;;;;16.10;5.03;;;;;;;13.38;100.00;92333.00;5089354;28;20040;-71
2022/09/29 04:15:35;;;;;;;15.85;6.38;;;;;;;13.29;100.00;92331.94;5089517;28;20044;-71
2022/09/29 04:18:02;;;;;;;12.68;5.18;;;;;;;13.22;100.00;92309.72;5089250;28;20089;-71
2022/09/29 04:20:29;;;;;;;10.98;4.55;;;;;;;13.23;100.00;92311.25;5104101;28;20047;-71
2022/09/29 04:22:55;;;;;;;10.38;4.90;;;;;;;13.19;100.00;92320.50;5109700;28;20453;-71
2022/09/29 04:25:22;;;;;;;14.40;4.95;;;;;;;13.17;100.00;92324.34;5109323;28;20498;-71
2022/09/29 04:27:49;;;;;;;15.32;5.30;;;;;;;13.13;100.00;92316.34;5109205;28;20084;-71
2022/09/29 04:30:17;;;;;;;10.57;5.00;;;;;;;13.10;100.00;92322.78;5108963;28;20043;-71
2022/09/29 04:32:45;;;;;;;12.43;4.65;;;;;;;12.94;100.00;92303.84;5109699;28;20418;-71
2022/09/29 04:35:12;;;;;;;13.68;4.43;;;;;;;13.03;100.00;92322.22;5109113;28;20050;-70
2022/09/29 04:37:38;;;;;;;9.90;4.78;;;;;;;13.01;100.00;92313.94;5109247;28;20101;-71
2022/09/29 04:40:06;;;;;;;16.75;4.40;;;;;;;12.97;100.00;92320.63;5109287;28;20096;-71
2022/09/29 04:42:33;;;;;;;10.88;4.25;;;;;;;12.95;100.00;92318.28;5109383;28;20048;-71
2022/09/29 04:44:59;;;;;;;9.77;4.13;;;;;;;12.93;100.00;92319.56;5108984;28;20047;-71
2022/09/29 04:47:26;;;;;;;11.60;3.97;;;;;;;12.89;100.00;92321.06;5109415;28;20115;-71
2022/09/29 04:49:54;;;;;;;13.75;4.80;;;;;;;12.90;100.00;92327.75;5109302;28;20579;-71
2022/09/29 04:52:21;;;;;;;9.82;4.20;;;;;;;12.89;100.00;92323.63;5105496;28;20043;-72
2022/09/29 04:54:48;;;;;;;10.48;4.30;;;;;;;12.87;100.00;92316.13;5088996;28;20564;-72
2022/09/29 04:57:14;;;;;;;10.35;3.90;;;;;;;12.88;100.00;92309.19;5088670;28;20048;-71
2022/09/29 04:59:41;;;;;;;6.70;3.30;;;;;;;12.85;100.00;92307.09;5088945;28;20048;-71
2022/09/29 05:02:08;;;;;;;7.88;3.67;;;;;;;12.87;100.00;92298.09;5088880;28;20130;-71
2022/09/29 05:04:34;;;;;;;7.03;3.60;;;;;;;12.87;100.00;92300.69;5128243;28;20104;-71
2022/09/29 05:07:03;;;;;;;9.18;4.07;;;;;;;12.91;100.00;92303.56;5129722;28;20384;-71
2022/09/29 05:09:29;;;;;;;10.38;3.67;;;;;;;12.92;100.00;92313.59;5129886;28;20092;-71
2022/09/29 05:11:56;;;;;;;12.32;4.28;;;;;;;12.95;100.00;92318.28;5129840;28;20051;-71
2022/09/29 05:14:23;;;;;;;10.57;3.85;;;;;;;12.96;100.00;92319.84;5129949;28;20051;-71
2022/09/29 05:16:49;;;;;;;7.50;3.70;;;;;;;12.97;100.00;92318.03;5129878;28;20051;-71
2022/09/29 05:19:16;;;;;;;9.02;3.53;;;;;;;13.00;100.00;92327.84;5125965;28;20100;-70
2022/09/29 05:21:43;;;;;;;6.45;3.15;;;;;;;12.95;100.00;92325.22;5099530;28;20051;-70
2022/09/29 05:24:11;;;;;;;8.70;3.05;;;;;;;13.03;100.00;92334.31;5128599;28;20525;-70
2022/09/29 05:26:38;;;;;;;7.43;3.17;;;;;;;13.09;100.00;92341.84;5129378;28;20092;-70
2022/09/29 05:29:05;;;;;;;7.05;3.47;;;;;;;13.13;100.00;92339.56;5129524;28;20051;-70
2022/09/29 05:31:32;;;;;;;7.55;3.22;;;;;;;13.20;100.00;92344.50;5129562;28;20043;-69
2022/09/29 05:33:59;;;;;;;6.85;2.88;;;;;;;13.28;100.00;92343.28;5129544;28;20046;-69
2022/09/29 05:36:26;;;;;;;7.63;2.97;;;;;;;13.35;100.00;92349.78;5129760;28;20052;-69
2022/09/29 05:38:52;;;;;;;6.43;2.50;;;;;;;13.42;100.00;92343.63;5129709;28;20088;-69
2022/09/29 05:41:22;;;;;;;7.30;3.50;;;;;;;13.49;100.00;92352.75;5131276;27;20112;-70
2022/09/29 05:43:49;;;;;;;7.57;2.80;;;;;;;13.41;100.00;92319.63;5119404;27;20595;-70
2022/09/29 05:46:18;;;;;;;6.50;2.95;;;;;;;13.75;100.00;92342.53;5133292;27;20051;-70
2022/09/29 05:48:45;;;;;;;11.30;2.95;;;;;;;13.86;100.00;92340.00;5133523;27;20047;-71
2022/09/29 05:51:14;;;;;;;5.57;2.28;;;;;;;14.04;100.00;92343.97;5132931;27;20567;-71
2022/09/29 05:53:42;;;;;;;4.90;2.10;;;;;;;14.22;100.00;92345.34;5133499;27;20046;-71
2022/09/29 05:56:10;;;;;;;5.53;2.03;;;;;;;14.36;100.00;92353.38;5133319;27;20088;-71
2022/09/29 05:58:39;;;;;;;5.15;1.70;;;;;;;14.60;100.00;92360.69;5133086;27;20058;-71
2022/09/29 06:01:07;;;;;;;4.80;1.83;;;;;;;14.75;100.00;92362.53;5133289;27;20043;-71
2022/09/29 06:03:35;;;;;;;4.47;1.90;;;;;;;14.85;100.00;92356.59;5092656;28;20052;-71
2022/09/29 06:06:07;;;;;;;5.97;1.40;;;;;;;15.10;100.00;92371.34;5092677;28;20055;-71
2022/09/29 06:08:35;;;;;;;3.67;1.60;;;;;;;15.28;100.00;92374.47;5092437;28;20138;-71
2022/09/29 06:11:06;;;;;;;4.15;1.83;;;;;;;15.41;100.00;92372.41;5092392;28;20047;-71
2022/09/29 06:13:34;;;;;;;4.60;1.83;;;;;;;15.59;100.00;92376.25;5092227;28;20426;-71
2022/09/29 06:16:02;;;;;;;8.27;2.25;;;;;;;15.76;100.00;92370.81;5092204;28;20044;-71
2022/09/29 06:18:29;;;;;;;4.53;1.75;;;;;;;15.93;100.00;92367.97;5059517;28;20059;-70
2022/09/29 06:21:01;;;;;;;7.20;2.08;;;;;;;16.16;100.00;92376.19;5075873;28;20048;-70
2022/09/29 06:23:28;;;;;;;4.60;1.77;;;;;;;16.40;100.00;92378.16;5092122;28;20097;-70
2022/09/29 06:25:56;;;;;;;3.30;1.60;;;;;;;16.67;100.00;92377.75;5091541;28;20044;-70
2022/09/29 06:28:23;;;;;;;6.35;1.75;;;;;;;17.00;100.00;92379.91;5092011;28;20048;-70
2022/09/29 06:30:50;;;;;;;4.35;1.67;;;;;;;17.29;100.00;92381.00;5091287;28;20056;-71
2022/09/29 06:33:19;;;;;;;7.07;2.05;;;;;;;17.53;100.00;92385.50;5091932;28;20089;-71
2022/09/29 06:38:30;;;;;;;10.75;2.22;;;;;;;17.85;100.00;92399.75;5091413;28;20058;-71
2022/09/29 06:40:57;;;;;;;9.20;1.98;;;;;;;17.94;100.00;92403.31;5091226;28;20496;-71
2022/09/29 06:43:23;;;;;;;6.72;1.98;;;;;;;17.98;100.00;92388.72;5091615;28;20096;-70
2022/09/29 06:45:50;;;;;;;9.85;2.30;;;;;;;18.12;100.00;92409.66;5091390;28;20052;-70
2022/09/29 06:48:18;;;;;;;6.20;1.95;;;;;;;18.20;100.00;92408.28;5091387;28;20056;-70
2022/09/29 06:50:45;;;;;;;4.78;1.70;;;;;;;18.28;99.10;92415.47;5091583;28;20048;-70
2022/09/29 06:53:12;;;;;;;10.65;2.22;;;;;;;18.34;99.24;92420.59;5091090;28;20430;-70
2022/09/29 06:55:39;;;;;;;8.38;2.30;;;;;;;18.34;99.00;92420.59;5091365;28;20093;-70
2022/09/29 06:58:05;;;;;;;8.88;2.15;;;;;;;18.43;98.55;92416.34;5091401;28;20109;-70
2022/09/29 07:00:33;;;;;;;4.07;1.65;;;;;;;18.50;97.51;92416.00;5091066;28;20544;-70
2022/09/29 07:03:01;;;;;;;9.00;2.00;;;;;;;18.54;97.38;92415.19;5122746;27;20104;-70
2022/09/29 07:05:29;;;;;;;6.00;1.75;;;;;;;18.72;97.86;92414.69;5132332;27;20088;-70
2022/09/29 07:07:56;;;;;;;7.88;2.10;;;;;;;18.89;98.21;92412.38;5098438;27;20056;-70
2022/09/29 07:10:22;;;;;;;5.32;2.05;;;;;;;19.03;96.55;92409.09;5130342;27;20065;-69
2022/09/29 07:12:49;;;;;;;4.65;1.70;;;;;;;19.17;95.04;92406.59;5131819;27;20136;-69
2022/09/29 07:15:16;;;;;;;7.75;2.15;;;;;;;19.34;93.46;92408.66;5131829;27;20043;-69
2022/09/29 07:17:42;;;;;;;6.38;2.03;;;;;;;19.41;93.24;92400.50;5131884;27;20104;-69
2022/09/29 07:20:09;;;;;;;4.05;1.52;;;;;;;19.48;93.28;92393.88;5119149;27;20044;-69
2022/09/29 07:22:37;;;;;;;9.38;2.25;;;;;;;19.63;93.79;92398.03;5129733;27;20047;-69
2022/09/29 07:25:05;;;;;;;5.38;2.13;;;;;;;19.75;93.67;92397.59;5131790;27;20051;-70
2022/09/29 07:27:33;;;;;;;7.05;1.90;;;;;;;19.85;92.15;92398.47;5131264;27;20047;-69
2022/09/29 07:30:00;;;;;;;7.35;1.92;;;;;;;19.95;90.20;92408.72;5131658;27;20051;-69
2022/09/29 07:32:26;;;;;;;9.65;2.40;;;;;;;19.98;89.38;92407.41;5130971;27;20558;-69
2022/09/29 07:34:53;;;;;;;3.47;1.45;;;;;;;19.97;88.73;92403.25;5131299;27;20047;-69
2022/09/29 07:37:20;;;;;;;9.27;2.28;;;;;;;19.98;87.69;92407.41;5131253;27;20096;-69
2022/09/29 07:39:48;;;;;;;6.72;1.98;;;;;;;19.94;88.64;92416.84;5131351;27;20104;-69
2022/09/29 07:42:16;;;;;;;5.95;1.60;;;;;;;19.88;87.81;92408.31;5131309;27;20096;-69
2022/09/29 07:44:43;;;;;;;3.90;1.52;;;;;;;19.81;87.79;92429.53;5131068;27;20054;-69
2022/09/29 07:47:10;;;;;;;8.70;2.03;;;;;;;19.80;87.77;92428.00;5130874;27;20104;-69
2022/09/29 07:49:37;;;;;;;7.80;1.63;;;;;;;19.82;89.11;92438.16;5131188;27;20047;-69
2022/09/29 07:52:04;;;;;;;9.35;1.80;;;;;;;19.84;88.31;92438.63;5131255;27;20473;-69
2022/09/29 07:54:31;;;;;;;8.98;2.00;;;;;;;19.94;88.91;92443.66;5130619;27;20050;-69
2022/09/29 07:57:00;;;;;;;9.55;2.10;;;;;;;20.06;88.43;92451.06;5131098;27;20062;-69
2022/09/29 07:59:27;;;;;;;7.93;2.13;;;;;;;20.16;87.19;92455.31;5131178;27;20476;-69
2022/09/29 08:01:54;;;;;;;10.10;2.42;;;;;;;20.19;86.27;92457.38;5130583;27;20564;-69
2022/09/29 08:04:21;;;;;;;11.57;2.30;;;;;;;20.19;85.76;92457.38;5130075;27;20433;-69
2022/09/29 08:06:48;;;;;;;7.40;1.90;;;;;;;19.98;84.34;92460.31;5130471;27;20047;-69
2022/09/29 08:09:15;;;;;;;8.93;2.22;;;;;;;20.01;83.73;92466.78;5130632;27;20490;-69
2022/09/29 08:11:43;;;;;;;7.05;2.03;;;;;;;20.05;84.83;92475.59;5130492;27;20054;-69
2022/09/29 08:14:11;;;;;;;7.80;2.08;;;;;;;20.07;84.84;92472.69;5130458;27;20502;-69
2022/09/29 08:16:38;;;;;;;9.35;2.40;;;;;;;20.02;84.45;92471.72;5130706;27;20043;-69
2022/09/29 08:19:05;;;;;;;9.20;1.90;;;;;;;20.01;84.48;92477.97;5127490;27;20047;-69
2022/09/29 08:21:35;;;;;;;3.03;1.70;;;;;;;20.01;84.78;92477.97;5119657;27;20043;-70
2022/09/29 08:24:03;;;;;;;6.00;1.90;;;;;;;20.02;84.11;92479.53;5130846;27;20057;-69
2022/09/29 08:26:32;;;;;;;7.25;1.85;;;;;;;20.05;84.01;92477.41;5130309;27;20051;-70
2022/09/29 08:28:58;;;;;;;9.90;1.90;;;;;;;20.06;83.20;92476.34;5130508;27;20051;-70
2022/09/29 08:31:27;;;;;;;9.38;1.67;;;;;;;20.05;81.89;92482.63;5130607;27;20043;-69
2022/09/29 08:33:57;;;;;;;8.10;1.77;;;;;;;20.06;82.36;92478.94;5130756;27;20150;-69
2022/09/29 08:36:24;;;;;;;6.82;1.90;;;;;;;20.06;83.16;92471.91;5130319;27;20051;-69
2022/09/29 08:38:53;;;;;;;7.88;1.80;;;;;;;20.09;83.63;92470.56;5130269;27;20456;-69
2022/09/29 08:41:33;;;;;;;7.35;2.13;;;;;;;20.13;83.87;92468.91;5130241;27;20047;-69
2022/09/29 08:44:05;;;;;;;9.70;2.70;;;;;;;20.18;83.25;92468.81;5114155;27;20040;-69
2022/09/29 08:46:38;;;;;;;5.38;1.20;;;;;;;20.21;80.25;92468.28;5113261;27;20107;-69
2022/09/29 08:49:10;;;;;;;6.03;1.40;;;;;;;20.32;80.59;92471.44;5129355;27;20043;-69
2022/09/29 08:51:43;;;;;;;6.35;1.58;;;;;;;20.50;80.46;92472.44;5130248;27;20055;-69
2022/09/29 08:54:21;;;;;;;6.78;1.30;;;;;;;20.55;77.32;92476.81;5130055;27;20039;-69
2022/09/29 08:56:48;;;;;;;2.97;1.10;;;;;;;20.59;76.62;92484.81;5129873;27;20043;-69
2022/09/29 08:59:16;;;;;;;5.93;1.52;;;;;;;20.55;75.39;92485.38;5129733;27;20524;-69
2022/09/29 09:01:57;;;;;;;2.83;0.93;;;;;;;20.53;75.27;92482.31;5107581;28;20052;-69
2022/09/29 09:04:45;;;;;;;3.60;0.77;;;;;;;20.55;75.79;92476.81;5129833;28;20441;-69
2022/09/29 09:07:21;;;;;;;5.88;1.60;;;;;;;20.68;74.72;92481.25;5129439;28;20497;-69
2022/09/29 09:09:56;;;;;;;;;;;;;;;20.90;74.74;92482.41;5113547;28;20060;-69
2022/09/29 09:12:55;;;;;;;3.47;0.90;;;;;;;21.08;74.01;92474.75;5130180;28;20047;-70
2022/09/29 09:15:36;;;;;;;2.97;1.00;;;;;;;21.32;72.55;92474.50;5131901;27;20039;-69
2022/09/29 09:18:23;;;;;;;4.15;0.90;;;;;;;21.61;73.04;92478.56;5134003;27;20095;-69
2022/09/29 09:20:56;;;;;;;3.15;1.17;;;;;;;21.79;70.29;92480.56;5119296;27;20047;-69
2022/09/29 09:23:29;;;;;;;3.60;1.10;;;;;;;21.89;67.67;92481.09;5134158;27;20434;-69
2022/09/29 09:25:59;;;;;;;3.05;1.00;;;;;;;21.85;68.29;92474.16;5134023;27;20047;-69
2022/09/29 09:28:30;;;;;;;3.47;1.00;;;;;;;21.82;67.02;92466.88;5134128;27;20092;-69
2022/09/29 09:31:01;;;;;;;1.98;0.80;;;;;;;21.78;67.68;92473.78;5133642;27;20043;-69
2022/09/29 09:33:36;;;;;;;2.25;1.08;;;;;;;21.67;68.77;92476.63;5133697;27;20047;-69
2022/09/29 09:36:09;;;;;;;2.78;0.93;;;;;;;21.67;67.88;92478.44;5133882;27;21643;-69
2022/09/29 09:38:48;;;;;;;4.13;1.00;;;;;;;21.57;68.79;92480.22;5133577;27;20043;-69
2022/09/29 09:41:19;;;;;;;3.35;1.25;;;;;;;21.48;70.50;92482.00;5133273;27;20047;-69
2022/09/29 09:43:49;;;;;;;2.10;1.05;;;;;;;21.46;70.16;92476.28;5133544;27;20092;-69
2022/09/29 09:46:23;;;;;;;2.63;1.10;;;;;;;21.56;70.11;92480.53;5133393;27;20049;-69
2022/09/29 09:49:01;;;;;;;4.75;1.23;;;;;;;21.64;71.51;92469.34;5133268;27;20043;-69
2022/09/29 09:51:38;;;;;;;3.00;1.20;;;;;;;21.71;70.38;92479.44;5132018;27;20107;-69
2022/09/29 09:54:10;;;;;;;4.97;1.40;;;;;;;21.75;70.27;92486.38;5133099;27;20043;-70
2022/09/29 09:56:50;;;;;;;5.10;1.65;;;;;;;21.71;70.21;92479.44;5133484;27;20449;-70
2022/09/29 09:59:29;;;;;;;6.32;1.75;;;;;;;21.71;70.25;92485.41;5097683;27;20798;-70
2022/09/29 10:01:57;;;;;;;4.57;1.10;;;;;;;21.58;68.44;92486.22;5105922;27;20047;-70
2022/09/29 10:04:25;;;;;;;3.08;1.15;;;;;;;21.59;69.41;92482.53;5108050;28;20051;-70
2022/09/29 10:06:52;;;;;;;3.35;1.30;;;;;;;21.63;69.92;92483.50;5100389;27;20123;-70
2022/09/29 10:09:20;;;;;;;7.40;2.35;;;;;;;21.67;69.36;92476.63;5105623;28;20047;-70
2022/09/29 10:11:47;;;;;;;4.68;1.10;;;;;;;21.56;68.94;92455.16;5124435;27;20084;-70
2022/09/29 10:14:21;;;;;;;3.35;1.45;;;;;;;21.64;68.02;92479.81;5132843;27;20043;-69
2022/09/29 10:16:51;;;;;;;2.97;1.25;;;;;;;21.57;67.03;92471.63;5133043;27;20051;-70
2022/09/29 10:19:21;;;;;;;3.22;1.40;;;;;;;21.63;67.92;92479.03;5111782;27;20051;-70
2022/09/29 10:21:50;;;;;;;4.10;1.20;;;;;;;21.71;67.46;92469.72;5114135;27;20047;-70
2022/09/29 10:24:27;;;;;;;4.95;2.00;;;;;;;21.77;67.50;92473.00;5129915;27;20047;-70
2022/09/29 10:26:56;;;;;;;5.03;1.67;;;;;;;21.81;67.70;92467.97;5125226;27;20459;-70
2022/09/29 10:29:28;;;;;;;3.38;1.23;;;;;;;21.95;67.48;92467.88;5132500;27;21021;-70
2022/09/29 10:32:05;;;;;;;3.65;1.33;;;;;;;22.08;65.18;92474.13;5132604;27;20055;-70
2022/09/29 10:34:34;;;;;;;3.30;1.45;;;;;;;22.21;64.53;92472.50;5131825;27;20862;-70
2022/09/29 10:37:04;;;;;;;4.65;1.80;;;;;;;22.34;64.19;92463.78;5132628;27;20047;-70
2022/09/29 10:39:41;;;;;;;3.75;1.45;;;;;;;22.34;63.08;92470.84;5128075;27;20046;-70
2022/09/29 10:42:22;;;;;;;3.63;1.20;;;;;;;22.40;62.96;92464.44;5132485;27;20453;-70
2022/09/29 10:44:54;;;;;;;6.38;1.40;;;;;;;22.40;62.49;92459.94;5131966;27;20069;-70
2022/09/29 10:47:22;;;;;;;5.57;1.48;;;;;;;22.45;63.74;92453.78;5132183;27;20047;-70
2022/09/29 10:50:08;;;;;;;3.05;1.70;;;;;;;22.41;62.93;92453.63;5131942;27;20785;-70
2022/09/29 10:52:37;;;;;;;3.75;1.70;;;;;;;22.46;63.39;92454.59;5132051;27;20491;-70
2022/09/29 10:55:05;;;;;;;2.58;1.50;;;;;;;22.57;64.43;92457.75;5131854;27;20043;-70
2022/09/29 10:57:36;;;;;;;3.90;1.50;;;;;;;22.49;64.20;92425.97;5131908;27;20035;-70
2022/09/29 11:00:05;;;;;;;3.67;1.40;;;;;;;22.68;64.45;92430.97;5131862;27;20129;-70
2022/09/29 11:02:36;;;;;;;3.85;1.75;;;;;;;22.92;64.25;92448.09;5131711;27;20051;-70
2022/09/29 11:05:05;;;;;;;4.43;1.58;;;;;;;22.94;62.17;92447.81;5131174;27;20044;-70
2022/09/29 11:07:33;;;;;;;4.65;1.48;;;;;;;22.95;61.27;92450.13;5131763;27;20062;-70
2022/09/29 11:10:01;;;;;;;3.80;1.60;;;;;;;23.06;61.84;92444.59;5131299;27;20044;-70
2022/09/29 11:12:32;;;;;;;2.22;1.23;;;;;;;23.14;61.75;92443.81;5132116;27;20043;-71
2022/09/29 11:15:00;;;;;;;5.13;1.60;;;;;;;23.27;62.66;92444.75;5119197;27;20117;-70
2022/09/29 11:17:29;;;;;;;10.00;1.67;;;;;;;23.33;62.18;92446.16;5108537;27;20491;-70
2022/09/29 11:19:59;;;;;;;15.45;2.47;;;;;;;23.24;61.51;92434.91;5107445;28;20058;-70
2022/09/29 11:22:49;;;;;;;12.25;2.38;;;;;;;23.32;61.31;92439.41;5127866;27;20130;-70
2022/09/29 11:25:31;;;;;;;9.55;2.53;;;;;;;23.23;60.32;92441.97;5131466;27;20043;-70
2022/09/29 11:28:13;;;;;;;5.82;1.55;;;;;;;23.20;61.27;92436.59;5131449;27;20051;-70
2022/09/29 11:30:55;;;;;;;4.72;1.13;;;;;;;23.10;61.41;92432.44;5131044;27;20095;-70
2022/09/29 11:33:31;;;;;;;4.35;1.27;;;;;;;22.89;61.89;92412.06;5131187;27;20547;-70
2022/09/29 11:36:04;;;;;;;4.07;1.40;;;;;;;23.04;62.46;92434.41;5131080;27;21145;-70
2022/09/29 11:38:54;;;;;;;4.13;1.48;;;;;;;23.20;62.27;92428.72;5130180;27;20039;-70
2022/09/29 11:41:40;;;;;;;2.65;1.17;;;;;;;23.30;60.94;92432.88;5130848;27;20039;-70
2022/09/29 11:44:24;;;;;;;2.35;1.30;;;;;;;23.35;60.30;92430.16;5131213;27;20047;-70